createdAt,value
2022-10-28T00:01:10.664Z,2.70
2022-10-28T00:03:39.847Z,2.80
2022-10-28T00:06:09.703Z,2.80
2022-10-28T00:08:36.523Z,2.77
2022-10-28T00:11:18.915Z,3.20
2022-10-28T00:13:45.764Z,2.80
2022-10-28T00:16:20.829Z,2.40
2022-10-28T00:18:48.099Z,1.90
2022-10-28T00:21:17.519Z,2.60
2022-10-28T00:23:44.335Z,2.73
2022-10-28T00:26:17.808Z,2.80
2022-10-28T00:28:47.078Z,2.80
2022-10-28T00:31:15.783Z,2.47
2022-10-28T00:33:42.325Z,3.17
2022-10-28T00:36:17.404Z,2.40
2022-10-28T00:38:46.270Z,2.90
2022-10-28T00:41:15.839Z,2.47
2022-10-28T00:43:47.595Z,2.83
2022-10-28T00:46:47.545Z,2.57
2022-10-28T00:49:20.058Z,2.50
2022-10-28T00:51:51.981Z,3.00
2022-10-28T00:54:19.600Z,2.27
2022-10-28T00:56:51.546Z,2.50
2022-10-28T00:59:26.998Z,2.90
2022-10-28T01:01:54.386Z,2.80
2022-10-28T01:04:21.652Z,2.50
2022-10-28T01:06:49.138Z,2.93
2022-10-28T01:09:15.660Z,2.57
2022-10-28T01:12:06.998Z,2.60
2022-10-28T01:14:53.899Z,2.60
2022-10-28T01:17:46.363Z,2.47
2022-10-28T01:24:44.419Z,2.70
2022-10-28T01:39:10.033Z,2.57
2022-10-28T01:42:48.861Z,2.70
2022-10-28T01:45:49.369Z,2.30
2022-10-28T01:53:06.735Z,2.60
2022-10-28T01:56:15.940Z,2.37
2022-10-28T01:59:10.884Z,2.60
2022-10-28T02:05:47.745Z,2.80
2022-10-28T02:20:04.950Z,3.07
2022-10-28T02:26:15.942Z,3.60
2022-10-28T02:29:04.628Z,2.47
2022-10-28T02:31:41.183Z,2.90
2022-10-28T02:34:34.898Z,2.57
2022-10-28T02:37:11.548Z,2.57
2022-10-28T02:39:47.300Z,2.50
2022-10-28T02:42:48.343Z,2.93
2022-10-28T02:45:24.498Z,2.13
2022-10-28T02:48:08.141Z,2.97
2022-10-28T02:50:44.202Z,2.50
2022-10-28T02:53:19.732Z,3.03
2022-10-28T02:55:57.752Z,2.70
2022-10-28T03:01:21.195Z,2.70
2022-10-28T03:04:17.526Z,2.97
2022-10-28T03:07:10.609Z,2.80
2022-10-28T03:17:04.662Z,2.57
2022-10-28T03:19:31.079Z,2.50
2022-10-28T03:21:57.405Z,2.80
2022-10-28T03:24:23.765Z,2.90
2022-10-28T03:26:50.117Z,2.43
2022-10-28T03:29:16.492Z,3.07
2022-10-28T03:31:42.854Z,2.40
2022-10-28T03:34:09.224Z,3.23
2022-10-28T03:36:35.581Z,2.87
2022-10-28T03:39:02.169Z,2.83
2022-10-28T03:41:28.496Z,2.70
2022-10-28T03:43:54.945Z,2.30
2022-10-28T03:46:21.334Z,2.40
2022-10-28T03:48:47.677Z,2.60
2022-10-28T03:51:14.010Z,2.37
2022-10-28T03:53:40.394Z,2.00
2022-10-28T03:56:07.263Z,2.60
2022-10-28T03:58:37.297Z,2.53
2022-10-28T04:01:06.669Z,2.33
2022-10-28T04:03:33.120Z,2.73
2022-10-28T04:05:59.480Z,2.50
2022-10-28T04:08:25.822Z,2.60
2022-10-28T04:10:52.236Z,2.60
2022-10-28T04:13:18.588Z,2.53
2022-10-28T04:15:45.022Z,2.07
2022-10-28T04:18:12.126Z,2.37
2022-10-28T04:20:46.286Z,2.60
2022-10-28T04:23:30.025Z,2.40
2022-10-28T04:25:57.818Z,2.50
2022-10-28T04:28:25.969Z,3.10
2022-10-28T04:31:01.696Z,2.60
2022-10-28T04:39:04.197Z,2.73
2022-10-28T04:41:35.409Z,3.40
2022-10-28T04:44:03.890Z,3.27
2022-10-28T04:46:32.460Z,2.50
2022-10-28T04:49:04.005Z,2.67
2022-10-28T04:51:34.195Z,3.60
2022-10-28T04:54:02.077Z,3.27
2022-10-28T04:56:58.048Z,3.03
2022-10-28T04:59:26.119Z,2.80
2022-10-28T05:02:00.096Z,3.57
2022-10-28T05:08:58.833Z,3.10
2022-10-28T05:12:17.163Z,3.07
2022-10-28T05:18:57.211Z,3.17
2022-10-28T05:21:55.031Z,3.17
2022-10-28T05:24:22.482Z,3.47
2022-10-28T05:26:50.674Z,2.93
2022-10-28T05:29:20.353Z,3.00
2022-10-28T05:31:52.457Z,3.17
2022-10-28T05:34:24.996Z,2.90
2022-10-28T05:37:06.640Z,2.87
2022-10-28T05:39:36.038Z,2.53
2022-10-28T05:42:09.872Z,2.90
2022-10-28T05:45:03.982Z,3.07
2022-10-28T05:47:45.508Z,2.77
2022-10-28T05:50:27.980Z,2.77
2022-10-28T05:53:06.731Z,3.20
2022-10-28T05:55:37.212Z,2.80
2022-10-28T05:58:07.765Z,3.03
2022-10-28T06:00:35.697Z,3.13
2022-10-28T06:03:28.615Z,3.60
2022-10-28T06:06:05.370Z,2.63
2022-10-28T06:08:33.303Z,2.90
2022-10-28T06:11:05.328Z,3.40
2022-10-28T06:17:05.251Z,3.70
2022-10-28T06:19:56.397Z,2.60
2022-10-28T06:22:30.120Z,2.93
2022-10-28T06:25:00.433Z,3.00
2022-10-28T06:27:38.826Z,3.00
2022-10-28T06:30:13.334Z,3.40
2022-10-28T06:32:52.084Z,3.17
2022-10-28T06:39:00.810Z,3.00
2022-10-28T06:45:01.898Z,3.30
2022-10-28T06:48:06.310Z,3.27
2022-10-28T06:50:55.300Z,2.97
2022-10-28T06:53:22.146Z,2.87
2022-10-28T06:55:55.889Z,3.20
2022-10-28T06:58:23.206Z,3.30
2022-10-28T07:00:49.941Z,3.27
2022-10-28T07:03:16.986Z,3.17
2022-10-28T07:05:43.449Z,3.70
2022-10-28T07:08:09.902Z,3.07
2022-10-28T07:10:36.387Z,2.90
2022-10-28T07:13:03.342Z,3.27
2022-10-28T07:15:29.845Z,2.93
2022-10-28T07:17:58.158Z,3.63
2022-10-28T07:20:26.081Z,3.63
2022-10-28T07:23:00.399Z,3.07
2022-10-28T07:25:28.733Z,2.83
2022-10-28T07:27:58.532Z,2.67
2022-10-28T07:30:25.683Z,2.93
2022-10-28T07:32:52.544Z,2.67
2022-10-28T07:35:19.718Z,2.90
2022-10-28T07:37:46.582Z,3.57
2022-10-28T07:40:13.391Z,3.30
2022-10-28T07:42:39.849Z,2.37
2022-10-28T07:45:06.886Z,2.50
2022-10-28T07:47:33.251Z,2.70
2022-10-28T07:49:59.675Z,2.50
2022-10-28T07:56:16.405Z,2.80
2022-10-28T07:59:51.572Z,2.67
2022-10-28T08:08:53.296Z,3.37
2022-10-28T08:12:21.642Z,3.17
2022-10-28T08:14:59.099Z,2.73
2022-10-28T08:21:08.603Z,2.83
2022-10-28T08:24:02.212Z,2.77
2022-10-28T08:26:35.547Z,2.50
2022-10-28T08:35:54.048Z,3.53
2022-10-28T08:38:48.446Z,2.60
2022-10-28T08:45:52.985Z,2.70
2022-10-28T08:52:42.223Z,3.10
2022-10-28T08:55:36.922Z,3.40
2022-10-28T08:58:17.883Z,3.30
2022-10-28T09:01:00.483Z,3.27
2022-10-28T09:03:54.949Z,3.80
2022-10-28T09:06:25.597Z,2.83
2022-10-28T09:09:03.844Z,2.80
2022-10-28T09:14:58.361Z,3.70
2022-10-28T09:17:54.012Z,3.87
2022-10-28T09:21:09.061Z,3.60
2022-10-28T09:24:09.731Z,3.37
2022-10-28T09:26:45.875Z,2.83
2022-10-28T09:29:37.193Z,4.10
2022-10-28T09:39:07.328Z,2.83
2022-10-28T09:49:38.692Z,2.90
2022-10-28T09:52:08.111Z,2.70
2022-10-28T09:54:39.189Z,2.53
2022-10-28T09:57:05.909Z,2.63
2022-10-28T09:59:33.350Z,2.57
2022-10-28T10:01:59.889Z,2.63
2022-10-28T10:04:29.024Z,2.40
2022-10-28T10:07:00.521Z,2.60
2022-10-28T10:09:29.821Z,2.40
2022-10-28T10:12:02.206Z,2.43
2022-10-28T10:14:34.319Z,2.80
2022-10-28T10:17:24.916Z,3.07
2022-10-28T10:20:00.653Z,2.10
2022-10-28T10:22:34.146Z,2.30
2022-10-28T10:25:00.652Z,2.53
2022-10-28T10:27:30.323Z,2.87
2022-10-28T10:29:58.192Z,2.40
2022-10-28T10:32:31.608Z,1.83
2022-10-28T10:35:15.206Z,1.67
2022-10-28T10:37:44.117Z,1.97
2022-10-28T10:40:26.356Z,1.57
2022-10-28T10:43:13.187Z,1.90
2022-10-28T10:45:40.041Z,2.33
2022-10-28T10:48:16.158Z,1.83
2022-10-28T10:50:45.020Z,1.83
2022-10-28T10:53:40.534Z,1.77
2022-10-28T10:59:20.617Z,2.43
2022-10-28T11:05:23.010Z,1.67
2022-10-28T11:07:57.074Z,2.03
2022-10-28T11:10:43.658Z,1.67
2022-10-28T11:14:09.032Z,1.53
2022-10-28T11:17:06.392Z,1.53
2022-10-28T11:19:45.112Z,1.80
2022-10-28T11:22:40.203Z,1.23
2022-10-28T11:25:50.955Z,1.50
2022-10-28T11:33:24.742Z,1.67
2022-10-28T11:36:34.177Z,2.03
2022-10-28T11:39:55.497Z,1.47
2022-10-28T11:43:09.033Z,1.70
2022-10-28T11:46:10.687Z,1.53
2022-10-28T11:49:01.903Z,1.60
2022-10-28T11:51:39.238Z,1.60
2022-10-28T11:54:11.491Z,1.87
2022-10-28T11:56:59.397Z,2.03
2022-10-28T11:59:57.012Z,8.77
2022-10-28T12:02:49.328Z,2.13
2022-10-28T12:05:27.901Z,2.10
2022-10-28T12:08:21.477Z,2.30
2022-10-28T12:10:50.525Z,2.20
2022-10-28T12:13:32.027Z,1.80
2022-10-28T12:16:15.432Z,1.80
2022-10-28T12:19:12.617Z,1.50
2022-10-28T12:21:57.181Z,2.23
2022-10-28T12:24:25.025Z,1.67
2022-10-28T12:26:56.284Z,1.90
2022-10-28T12:29:30.063Z,2.07
2022-10-28T12:32:11.492Z,2.00
2022-10-28T12:34:44.996Z,2.60
2022-10-28T12:37:21.036Z,1.60
2022-10-28T12:40:29.145Z,2.00
2022-10-28T12:43:07.197Z,2.07
2022-10-28T12:53:27.604Z,2.30
2022-10-28T12:56:08.108Z,2.60
2022-10-28T12:58:42.990Z,2.60
2022-10-28T13:01:21.427Z,1.97
2022-10-28T13:03:51.991Z,2.13
2022-10-28T13:06:51.649Z,1.63
2022-10-28T13:09:43.400Z,1.70
2022-10-28T13:12:17.089Z,1.80
2022-10-28T13:15:03.798Z,1.80
2022-10-28T13:17:43.735Z,1.53
2022-10-28T13:20:32.632Z,1.70
2022-10-28T13:23:19.233Z,1.90
2022-10-28T13:26:43.433Z,2.10
2022-10-28T13:29:48.221Z,1.70
2022-10-28T13:32:53.778Z,1.80
2022-10-28T13:35:46.486Z,2.00
2022-10-28T13:39:07.887Z,2.20
2022-10-28T13:41:44.761Z,1.97
2022-10-28T13:44:20.383Z,1.83
2022-10-28T13:46:58.884Z,2.13
2022-10-28T13:49:32.137Z,1.90
2022-10-28T13:52:02.361Z,2.03
2022-10-28T13:54:43.753Z,1.50
2022-10-28T13:57:28.513Z,1.40
2022-10-28T14:00:23.365Z,1.60
2022-10-28T14:02:56.340Z,1.70
2022-10-28T14:05:45.992Z,1.80
2022-10-28T14:08:22.460Z,1.87
2022-10-28T14:11:05.364Z,2.10
2022-10-28T14:13:37.007Z,2.00
2022-10-28T14:16:34.250Z,2.20
2022-10-28T14:19:08.555Z,1.97
2022-10-28T14:21:46.952Z,2.10
2022-10-28T14:24:29.905Z,2.33
2022-10-28T14:27:18.057Z,2.03
2022-10-28T14:30:05.160Z,1.90
2022-10-28T14:32:31.580Z,1.90
2022-10-28T14:35:13.084Z,1.57
2022-10-28T14:38:12.512Z,1.57
2022-10-28T14:41:00.536Z,2.27
2022-10-28T14:44:10.131Z,1.70
2022-10-28T14:46:48.706Z,2.33
2022-10-28T14:49:25.592Z,2.77
2022-10-28T14:51:53.280Z,4.03
2022-10-28T14:54:36.606Z,5.73
2022-10-28T14:57:07.869Z,6.23
2022-10-28T14:59:40.328Z,5.67
2022-10-28T15:02:25.193Z,5.90
2022-10-28T15:05:04.485Z,5.60
2022-10-28T15:07:35.604Z,5.37
2022-10-28T15:10:25.985Z,5.17
2022-10-28T15:12:54.325Z,4.90
2022-10-28T15:15:23.453Z,4.87
2022-10-28T15:17:50.381Z,6.90
2022-10-28T15:20:25.474Z,8.23
2022-10-28T15:22:53.551Z,6.13
2022-10-28T15:25:22.090Z,5.63
2022-10-28T15:27:52.075Z,5.33
2022-10-28T15:30:24.873Z,5.57
2022-10-28T15:32:52.951Z,3.93
2022-10-28T15:35:29.626Z,4.90
2022-10-28T15:37:59.852Z,3.93
2022-10-28T15:40:35.155Z,3.27
2022-10-28T15:43:06.270Z,3.50
2022-10-28T15:45:41.328Z,3.87
2022-10-28T15:48:13.971Z,3.17
2022-10-28T15:50:41.495Z,3.23
2022-10-28T15:54:26.012Z,3.27
2022-10-28T15:57:00.098Z,3.07
2022-10-28T15:59:28.382Z,3.33
2022-10-28T16:01:58.071Z,3.17
2022-10-28T16:04:28.971Z,3.40
2022-10-28T16:07:10.874Z,2.90
2022-10-28T16:09:49.090Z,2.97
2022-10-28T16:13:54.611Z,3.13
2022-10-28T16:20:35.367Z,3.40
2022-10-28T16:24:14.362Z,3.20
2022-10-28T16:27:36.418Z,3.63
2022-10-28T16:30:09.100Z,3.77
2022-10-28T16:41:47.976Z,3.43
2022-10-28T16:44:19.341Z,2.97
2022-10-28T16:46:50.271Z,3.07
2022-10-28T16:49:19.158Z,2.70
2022-10-28T16:51:46.498Z,3.33
2022-10-28T16:54:18.584Z,3.93
2022-10-28T17:00:19.420Z,4.87
2022-10-28T17:03:21.345Z,5.73
2022-10-28T17:06:16.342Z,5.63
2022-10-28T17:12:00.531Z,5.60
2022-10-28T17:14:49.088Z,5.93
2022-10-28T17:17:37.744Z,5.23
2022-10-28T17:24:07.605Z,4.70
2022-10-28T17:26:59.361Z,4.30
2022-10-28T17:29:38.185Z,3.90
2022-10-28T17:32:16.316Z,3.37
2022-10-28T17:35:33.647Z,3.47
2022-10-28T17:38:00.444Z,3.67
2022-10-28T17:40:27.261Z,4.27
2022-10-28T17:42:59.382Z,3.70
2022-10-28T17:45:29.814Z,4.30
2022-10-28T17:48:00.686Z,4.17
2022-10-28T17:50:31.500Z,5.03
2022-10-28T17:52:58.096Z,6.43
2022-10-28T17:55:24.728Z,4.63
2022-10-28T17:57:51.086Z,4.83
2022-10-28T18:00:17.557Z,5.07
2022-10-28T18:02:44.026Z,4.43
2022-10-28T18:05:10.569Z,5.50
2022-10-28T18:07:37.040Z,6.33
2022-10-28T18:10:03.662Z,5.70
2022-10-28T18:12:30.024Z,6.30
2022-10-28T18:14:56.376Z,6.30
2022-10-28T18:17:22.780Z,5.53
2022-10-28T18:19:49.126Z,5.80
2022-10-28T18:22:15.639Z,6.23
2022-10-28T18:24:42.027Z,7.10
2022-10-28T18:27:08.583Z,6.70
2022-10-28T18:29:36.196Z,5.80
2022-10-28T18:32:04.533Z,5.00
2022-10-28T18:34:31.493Z,4.83
2022-10-28T18:36:57.983Z,5.27
2022-10-28T18:39:26.148Z,4.30
2022-10-28T18:41:52.623Z,4.00
2022-10-28T18:44:21.565Z,4.13
2022-10-28T18:46:48.061Z,4.73
2022-10-28T18:49:14.484Z,5.47
2022-10-28T18:54:33.512Z,5.77
2022-10-28T18:57:12.368Z,5.57
2022-10-28T19:00:05.112Z,5.60
2022-10-28T19:05:48.029Z,5.70
2022-10-28T19:08:35.937Z,5.40
2022-10-28T19:11:43.412Z,5.20
2022-10-28T19:14:31.499Z,4.97
2022-10-28T19:17:11.561Z,4.40
2022-10-28T19:19:39.327Z,5.70
2022-10-28T19:22:15.803Z,6.90
2022-10-28T19:24:49.647Z,5.60
2022-10-28T19:27:19.955Z,6.43
2022-10-28T19:30:27.996Z,5.47
2022-10-28T19:33:59.875Z,6.70
2022-10-28T19:37:14.355Z,6.27
2022-10-28T19:39:56.400Z,6.27
2022-10-28T19:42:40.352Z,5.67
2022-10-28T19:48:16.263Z,4.73
2022-10-28T19:50:52.381Z,4.13
2022-10-28T19:53:18.732Z,4.50
2022-10-28T19:55:45.070Z,4.83
2022-10-28T19:58:11.560Z,4.60
2022-10-28T20:00:37.994Z,3.73
2022-10-28T20:03:04.379Z,4.50
2022-10-28T20:05:30.799Z,4.10
2022-10-28T20:07:57.505Z,3.70
2022-10-28T20:10:23.934Z,4.23
2022-10-28T20:12:50.338Z,3.73
2022-10-28T20:15:16.702Z,3.80
2022-10-28T20:17:43.111Z,4.00
2022-10-28T20:20:10.210Z,3.80
2022-10-28T20:22:41.330Z,4.00
2022-10-28T20:25:09.131Z,3.80
2022-10-28T20:27:35.512Z,3.67
2022-10-28T20:30:01.859Z,4.37
2022-10-28T20:32:28.397Z,4.43
2022-10-28T20:34:54.851Z,4.13
2022-10-28T20:37:21.214Z,4.17
2022-10-28T20:39:48.036Z,4.73
2022-10-28T20:42:14.500Z,4.27
2022-10-28T20:44:40.882Z,4.30
2022-10-28T20:47:07.205Z,4.63
2022-10-28T20:49:33.600Z,5.00
2022-10-28T20:52:00.779Z,4.40
2022-10-28T20:54:27.148Z,4.73
2022-10-28T20:56:53.475Z,4.47
2022-10-28T20:59:19.825Z,3.90
2022-10-28T21:01:46.423Z,4.40
2022-10-28T21:04:12.992Z,4.90
2022-10-28T21:06:39.750Z,4.40
2022-10-28T21:09:06.933Z,4.27
2022-10-28T21:11:33.660Z,4.33
2022-10-28T21:14:01.585Z,4.77
2022-10-28T21:16:31.713Z,5.23
2022-10-28T21:19:02.696Z,4.37
2022-10-28T21:21:30.172Z,3.57
2022-10-28T21:23:56.891Z,4.30
2022-10-28T21:26:23.393Z,4.80
2022-10-28T21:28:51.840Z,4.00
2022-10-28T21:31:20.032Z,3.77
2022-10-28T21:33:47.058Z,3.90
2022-10-28T21:36:19.267Z,3.53
2022-10-28T21:38:46.441Z,3.77
2022-10-28T21:41:18.617Z,4.00
2022-10-28T21:43:47.852Z,4.70
2022-10-28T21:46:14.843Z,3.70
2022-10-28T21:48:41.361Z,3.90
2022-10-28T21:51:13.602Z,3.90
2022-10-28T21:53:42.620Z,4.00
2022-10-28T21:56:16.567Z,3.67
2022-10-28T21:58:43.372Z,3.57
2022-10-28T22:01:13.449Z,3.83
2022-10-28T22:03:40.699Z,3.67
2022-10-28T22:06:07.501Z,3.70
2022-10-28T22:08:34.661Z,4.33
2022-10-28T22:11:11.990Z,3.63
2022-10-28T22:13:38.514Z,3.50
2022-10-28T22:16:07.989Z,3.27
2022-10-28T22:18:36.121Z,3.20
2022-10-28T22:21:08.804Z,3.10
2022-10-28T22:23:35.449Z,3.47
2022-10-28T22:26:06.079Z,3.10
2022-10-28T22:28:32.748Z,3.20
2022-10-28T22:31:00.494Z,3.80
2022-10-28T22:33:27.166Z,3.33
2022-10-28T22:36:07.208Z,3.77
2022-10-28T22:38:33.992Z,3.13
2022-10-28T22:41:05.935Z,2.90
2022-10-28T22:43:32.766Z,3.40
2022-10-28T22:45:59.894Z,2.80
2022-10-28T22:48:26.880Z,3.30
2022-10-28T22:50:53.837Z,3.00
2022-10-28T22:53:20.322Z,3.37
2022-10-28T22:55:47.479Z,3.23
2022-10-28T22:58:15.243Z,3.30
2022-10-28T23:00:41.627Z,4.13
2022-10-28T23:03:08.186Z,4.00
2022-10-28T23:05:34.676Z,3.43
2022-10-28T23:08:01.087Z,3.30
2022-10-28T23:10:28.071Z,3.50
2022-10-28T23:12:58.684Z,3.30
2022-10-28T23:15:25.673Z,4.07
2022-10-28T23:17:52.692Z,3.67
2022-10-28T23:20:21.086Z,4.00
2022-10-28T23:22:47.696Z,4.13
2022-10-28T23:25:14.831Z,3.70
2022-10-28T23:27:44.645Z,3.73
2022-10-28T23:30:13.135Z,3.60
2022-10-28T23:32:40.258Z,3.60
2022-10-28T23:35:07.231Z,3.63
2022-10-28T23:37:33.677Z,4.07
2022-10-28T23:40:00.103Z,4.17
2022-10-28T23:42:26.522Z,4.43
2022-10-28T23:44:52.908Z,4.30
2022-10-28T23:47:19.379Z,4.03
2022-10-28T23:49:45.833Z,3.70
2022-10-28T23:52:12.320Z,4.10
2022-10-28T23:54:38.805Z,3.43
2022-10-28T23:57:05.278Z,3.80
2022-10-28T23:59:31.735Z,3.73
